createdAt,value
2016-10-01T00:00:44.261Z,0.00
2016-10-01T00:01:44.754Z,0.00
2016-10-01T00:02:45.268Z,0.00
2016-10-01T00:03:45.774Z,0.00
2016-10-01T00:04:46.586Z,0.00
2016-10-01T00:05:46.799Z,0.00
2016-10-01T00:06:47.313Z,0.00
2016-10-01T00:07:47.825Z,0.00
2016-10-01T00:08:48.364Z,0.00
2016-10-01T00:09:48.846Z,0.00
2016-10-01T00:10:49.362Z,0.00
2016-10-01T00:11:49.869Z,0.00
2016-10-01T00:12:50.382Z,0.00
2016-10-01T00:13:51.041Z,0.00
2016-10-01T00:14:51.410Z,0.00
2016-10-01T00:15:51.924Z,0.00
2016-10-01T00:16:52.441Z,0.00
2016-10-01T00:17:52.957Z,0.00
2016-10-01T00:18:53.482Z,0.00
2016-10-01T00:19:53.987Z,0.00
2016-10-01T00:20:54.507Z,0.00
2016-10-01T00:21:55.018Z,0.00
2016-10-01T00:22:56.273Z,0.00
2016-10-01T00:23:56.036Z,0.00
2016-10-01T00:24:56.547Z,0.00
2016-10-01T00:25:57.077Z,0.00
2016-10-01T00:26:57.572Z,0.00
2016-10-01T00:27:58.081Z,0.00
2016-10-01T00:28:58.595Z,0.00
2016-10-01T00:29:59.107Z,0.00
2016-10-01T00:30:59.620Z,0.00
2016-10-01T00:32:00.150Z,0.00
2016-10-01T00:33:00.652Z,0.00
2016-10-01T00:34:01.173Z,0.00
2016-10-01T00:35:01.680Z,0.00
2016-10-01T00:36:02.190Z,0.00
2016-10-01T00:37:02.700Z,0.00
2016-10-01T00:38:03.316Z,0.00
2016-10-01T00:39:03.748Z,0.00
2016-10-01T00:40:04.255Z,0.00
2016-10-01T00:41:04.751Z,0.00
2016-10-01T00:42:05.413Z,0.00
2016-10-01T00:43:05.775Z,0.00
2016-10-01T00:44:06.291Z,0.00
2016-10-01T00:45:06.800Z,0.00
2016-10-01T00:46:07.311Z,0.00
2016-10-01T00:47:07.825Z,0.00
2016-10-01T00:48:08.342Z,0.00
2016-10-01T00:49:08.854Z,0.00
2016-10-01T00:50:09.366Z,0.00
2016-10-01T00:51:09.875Z,0.00
2016-10-01T00:52:10.390Z,0.00
2016-10-01T00:53:10.905Z,0.00
2016-10-01T00:54:11.443Z,0.00
2016-10-01T00:55:12.090Z,0.00
2016-10-01T00:56:12.466Z,0.00
2016-10-01T00:57:13.119Z,0.00
2016-10-01T00:58:13.486Z,0.00
2016-10-01T00:59:14.009Z,0.00
2016-10-01T01:00:14.515Z,0.00
2016-10-01T01:01:15.031Z,0.00
2016-10-01T01:02:15.692Z,0.00
2016-10-01T01:03:16.082Z,0.00
2016-10-01T01:04:16.572Z,0.00
2016-10-01T01:05:17.080Z,0.00
2016-10-01T01:06:17.595Z,0.00
2016-10-01T01:07:18.112Z,0.00
2016-10-01T01:08:18.639Z,0.00
2016-10-01T01:09:19.131Z,0.00
2016-10-01T01:10:19.654Z,0.00
2016-10-01T01:11:21.804Z,0.00
2016-10-01T01:12:20.668Z,0.00
2016-10-01T01:13:21.181Z,0.00
2016-10-01T01:14:21.689Z,0.00
2016-10-01T01:15:22.199Z,0.00
2016-10-01T01:16:22.861Z,0.00
2016-10-01T01:17:23.224Z,0.00
2016-10-01T01:18:23.732Z,0.00
2016-10-01T01:19:24.246Z,0.00
2016-10-01T01:20:24.757Z,0.00
2016-10-01T01:21:25.268Z,0.00
2016-10-01T01:22:25.782Z,0.00
2016-10-01T01:23:26.296Z,0.00
2016-10-01T01:24:26.808Z,0.00
2016-10-01T01:25:27.472Z,0.00
2016-10-01T01:26:27.841Z,0.00
2016-10-01T01:27:28.345Z,0.00
2016-10-01T01:28:28.853Z,0.00
2016-10-01T01:29:29.514Z,0.00
2016-10-01T01:30:29.885Z,0.00
2016-10-01T01:31:30.396Z,0.00
2016-10-01T01:32:30.910Z,0.00
2016-10-01T01:33:31.425Z,0.00
2016-10-01T01:34:31.935Z,0.00
2016-10-01T01:35:32.448Z,0.00
2016-10-01T01:36:32.960Z,0.00
2016-10-01T01:37:33.619Z,0.00
2016-10-01T01:38:33.983Z,0.00
2016-10-01T01:39:34.498Z,0.00
2016-10-01T01:40:35.158Z,0.00
2016-10-01T01:41:35.518Z,0.00
2016-10-01T01:42:36.030Z,0.00
2016-10-01T01:43:36.545Z,0.00
2016-10-01T01:44:37.064Z,0.00
2016-10-01T01:45:37.569Z,0.00
2016-10-01T01:46:38.245Z,0.00
2016-10-01T01:47:38.604Z,0.00
2016-10-01T01:48:39.105Z,0.00
2016-10-01T01:49:39.621Z,0.00
2016-10-01T01:50:40.133Z,0.00
2016-10-01T01:51:40.661Z,0.00
2016-10-01T01:52:41.157Z,0.00
2016-10-01T01:53:41.824Z,0.00
2016-10-01T01:54:42.334Z,0.00
2016-10-01T01:55:42.695Z,0.00
2016-10-01T01:56:43.204Z,0.00
2016-10-01T01:57:43.717Z,0.00
2016-10-01T01:58:44.235Z,0.00
2016-10-01T01:59:44.911Z,0.00
2016-10-01T02:00:45.258Z,0.00
2016-10-01T02:01:45.763Z,0.00
2016-10-01T02:02:46.283Z,0.00
2016-10-01T02:03:46.787Z,0.00
2016-10-01T02:04:47.450Z,0.00
2016-10-01T02:05:47.840Z,0.00
2016-10-01T02:06:48.324Z,0.00
2016-10-01T02:07:48.839Z,0.00
2016-10-01T02:08:49.361Z,0.00
2016-10-01T02:09:49.881Z,0.00
2016-10-01T02:10:50.396Z,0.00
2016-10-01T02:11:51.058Z,0.00
2016-10-01T02:12:51.422Z,0.00
2016-10-01T02:13:52.080Z,0.00
2016-10-01T02:14:52.592Z,0.00
2016-10-01T02:15:52.954Z,0.00
2016-10-01T02:16:53.474Z,0.00
2016-10-01T02:17:54.885Z,0.00
2016-10-01T02:18:54.494Z,0.00
2016-10-01T02:19:55.007Z,0.00
2016-10-01T02:20:55.529Z,0.00
2016-10-01T02:21:56.038Z,0.00
2016-10-01T02:22:56.720Z,0.00
2016-10-01T02:23:57.066Z,0.00
2016-10-01T02:24:57.575Z,0.00
2016-10-01T02:25:58.089Z,0.00
2016-10-01T02:26:58.598Z,0.00
2016-10-01T02:27:59.260Z,0.00
2016-10-01T02:28:59.771Z,0.00
2016-10-01T02:30:00.141Z,0.00
2016-10-01T02:31:00.650Z,0.00
2016-10-01T02:32:01.172Z,0.00
2016-10-01T02:33:01.831Z,0.00
2016-10-01T02:34:02.196Z,0.00
2016-10-01T02:35:02.698Z,0.00
2016-10-01T02:36:03.219Z,0.00
2016-10-01T02:37:03.723Z,0.00
2016-10-01T02:38:04.238Z,0.00
2016-10-01T02:39:04.750Z,0.00
2016-10-01T02:40:05.266Z,0.00
2016-10-01T02:41:05.777Z,0.00
2016-10-01T02:42:06.589Z,0.00
2016-10-01T02:43:06.801Z,0.00
2016-10-01T02:44:07.322Z,0.00
2016-10-01T02:45:07.833Z,0.00
2016-10-01T02:46:08.505Z,0.00
2016-10-01T02:47:08.869Z,0.00
2016-10-01T02:48:11.182Z,0.00
2016-10-01T02:49:09.913Z,0.00
2016-10-01T02:50:10.402Z,0.00
2016-10-01T02:51:10.910Z,0.00
2016-10-01T02:52:11.573Z,0.00
2016-10-01T02:53:11.934Z,0.00
2016-10-01T02:54:12.446Z,0.00
2016-10-01T02:55:12.961Z,0.00
2016-10-01T02:56:13.474Z,0.00
2016-10-01T02:57:13.977Z,0.00
2016-10-01T02:58:14.489Z,0.00
2016-10-01T02:59:14.997Z,0.00
2016-10-01T03:00:15.508Z,0.00
2016-10-01T03:01:16.034Z,0.00
2016-10-01T03:02:16.538Z,0.00
2016-10-01T03:03:17.049Z,0.00
2016-10-01T03:04:17.557Z,0.00
2016-10-01T03:05:18.075Z,0.00
2016-10-01T03:06:18.596Z,0.00
2016-10-01T03:07:19.252Z,0.00
2016-10-01T03:08:19.635Z,0.00
2016-10-01T03:09:20.116Z,0.00
2016-10-01T03:10:20.627Z,0.00
2016-10-01T03:11:21.163Z,0.00
2016-10-01T03:12:21.649Z,0.00
2016-10-01T03:13:22.341Z,0.00
2016-10-01T03:14:22.673Z,0.00
2016-10-01T03:15:23.190Z,0.00
2016-10-01T03:16:23.852Z,0.00
2016-10-01T03:17:24.357Z,0.00
2016-10-01T03:18:24.717Z,0.00
2016-10-01T03:19:25.226Z,0.00
2016-10-01T03:20:25.741Z,0.00
2016-10-01T03:21:26.254Z,0.00
2016-10-01T03:22:26.773Z,0.00
2016-10-01T03:23:27.293Z,0.00
2016-10-01T03:24:27.810Z,0.00
2016-10-01T03:25:28.326Z,0.00
2016-10-01T03:26:28.838Z,0.00
2016-10-01T03:27:29.349Z,0.00
2016-10-01T03:28:29.863Z,0.00
2016-10-01T03:29:30.376Z,0.00
2016-10-01T03:30:30.901Z,0.00
2016-10-01T03:31:31.440Z,0.00
2016-10-01T03:32:31.918Z,0.00
2016-10-01T03:33:32.577Z,0.00
2016-10-01T03:34:33.092Z,0.00
2016-10-01T03:35:35.242Z,0.00
2016-10-01T03:36:33.953Z,0.00
2016-10-01T03:37:34.468Z,0.00
2016-10-01T03:38:34.982Z,0.00
2016-10-01T03:39:35.491Z,0.00
2016-10-01T03:40:36.003Z,0.00
2016-10-01T03:41:36.665Z,0.00
2016-10-01T03:42:37.027Z,0.00
2016-10-01T03:43:37.538Z,0.00
2016-10-01T03:44:38.056Z,0.00
2016-10-01T03:45:38.571Z,0.00
2016-10-01T03:46:39.085Z,0.00
2016-10-01T03:47:39.593Z,0.00
2016-10-01T03:48:40.107Z,0.00
2016-10-01T03:49:40.621Z,0.00
2016-10-01T03:50:41.438Z,0.00
2016-10-01T03:51:41.650Z,0.00
2016-10-01T03:52:42.162Z,0.00
2016-10-01T03:53:42.679Z,0.00
2016-10-01T03:54:43.201Z,0.00
2016-10-01T03:55:43.704Z,0.00
2016-10-01T03:56:44.214Z,0.00
2016-10-01T03:57:44.726Z,0.00
2016-10-01T03:58:45.246Z,0.00
2016-10-01T03:59:45.787Z,0.00
2016-10-01T04:00:46.281Z,0.00
2016-10-01T04:01:46.793Z,0.00
2016-10-01T04:02:47.305Z,0.00
2016-10-01T04:03:47.840Z,0.00
2016-10-01T04:04:48.326Z,0.00
2016-10-01T04:05:48.858Z,0.00
2016-10-01T04:06:49.350Z,0.00
2016-10-01T04:07:49.863Z,0.00
2016-10-01T04:08:50.375Z,0.00
2016-10-01T04:09:50.887Z,0.00
2016-10-01T04:10:51.393Z,0.00
2016-10-01T04:11:51.909Z,0.00
2016-10-01T04:12:52.412Z,0.00
2016-10-01T04:13:52.924Z,0.00
2016-10-01T04:14:53.591Z,0.00
2016-10-01T04:15:53.938Z,0.00
2016-10-01T04:16:54.453Z,0.00
2016-10-01T04:17:54.964Z,0.00
2016-10-01T04:18:55.648Z,0.00
2016-10-01T04:19:55.991Z,0.00
2016-10-01T04:20:56.502Z,0.00
2016-10-01T04:21:57.014Z,0.00
2016-10-01T04:22:57.526Z,0.00
2016-10-01T04:23:59.238Z,0.00
2016-10-01T04:24:58.544Z,0.00
2016-10-01T04:25:59.064Z,0.00
2016-10-01T04:26:59.570Z,0.00
2016-10-01T04:28:00.080Z,0.00
2016-10-01T04:29:00.589Z,0.00
2016-10-01T04:30:01.101Z,0.00
2016-10-01T04:31:01.613Z,0.00
2016-10-01T04:32:02.132Z,0.00
2016-10-01T04:33:02.784Z,0.00
2016-10-01T04:34:03.146Z,0.00
2016-10-01T04:35:03.667Z,0.00
2016-10-01T04:36:04.177Z,0.00
2016-10-01T04:37:04.992Z,0.00
2016-10-01T04:38:05.205Z,0.00
2016-10-01T04:39:05.724Z,0.00
2016-10-01T04:40:06.237Z,0.00
2016-10-01T04:41:06.745Z,0.00
2016-10-01T04:42:07.261Z,0.00
2016-10-01T04:43:07.777Z,0.00
2016-10-01T04:44:08.289Z,0.00
2016-10-01T04:45:08.805Z,0.00
2016-10-01T04:46:09.316Z,0.00
2016-10-01T04:47:09.833Z,0.00
2016-10-01T04:48:10.340Z,0.00
2016-10-01T04:49:10.854Z,0.00
2016-10-01T04:50:11.368Z,0.00
2016-10-01T04:51:12.034Z,0.00
2016-10-01T04:52:12.544Z,0.00
2016-10-01T04:53:13.650Z,0.00
2016-10-01T04:54:13.439Z,0.00
2016-10-01T04:55:13.923Z,0.00
2016-10-01T04:56:14.436Z,0.00
2016-10-01T04:57:14.952Z,0.00
2016-10-01T04:58:15.614Z,0.00
2016-10-01T04:59:15.975Z,0.00
2016-10-01T05:00:16.488Z,0.00
2016-10-01T05:01:17.002Z,0.00
2016-10-01T05:02:17.513Z,0.00
2016-10-01T05:03:18.028Z,0.00
2016-10-01T05:04:18.537Z,0.00
2016-10-01T05:05:19.052Z,0.00
2016-10-01T05:06:19.711Z,0.00
2016-10-01T05:07:20.224Z,0.00
2016-10-01T05:08:20.588Z,0.00
2016-10-01T05:09:21.104Z,0.00
2016-10-01T05:10:21.621Z,0.00
2016-10-01T05:11:22.134Z,0.00
2016-10-01T05:12:22.646Z,0.00
2016-10-01T05:13:23.165Z,0.00
2016-10-01T05:14:23.834Z,0.00
2016-10-01T05:15:24.202Z,0.00
2016-10-01T05:16:24.866Z,0.00
2016-10-01T05:17:25.226Z,0.00
2016-10-01T05:18:25.897Z,0.00
2016-10-01T05:19:26.250Z,0.00
2016-10-01T05:20:26.762Z,0.00
2016-10-01T05:21:27.277Z,0.00
2016-10-01T05:22:27.790Z,0.00
2016-10-01T05:23:28.452Z,0.00
2016-10-01T05:24:28.815Z,0.00
2016-10-01T05:25:30.828Z,0.00
2016-10-01T05:26:29.866Z,0.00
2016-10-01T05:27:30.359Z,0.00
2016-10-01T05:28:30.858Z,0.00
2016-10-01T05:29:31.369Z,0.00
2016-10-01T05:30:31.882Z,0.00
2016-10-01T05:31:32.399Z,0.00
2016-10-01T05:32:32.912Z,0.00
2016-10-01T05:33:33.419Z,0.00
2016-10-01T05:34:33.928Z,0.00
2016-10-01T05:35:34.442Z,0.00
2016-10-01T05:36:35.105Z,0.00
2016-10-01T05:37:35.468Z,0.00
2016-10-01T05:38:35.980Z,0.00
2016-10-01T05:39:36.495Z,0.00
2016-10-01T05:40:37.156Z,0.00
2016-10-01T05:41:37.661Z,0.00
2016-10-01T05:42:38.175Z,0.00
2016-10-01T05:43:38.534Z,0.00
2016-10-01T05:44:39.045Z,0.00
2016-10-01T05:45:39.558Z,0.00
2016-10-01T05:46:40.225Z,0.00
2016-10-01T05:47:40.580Z,0.00
2016-10-01T05:48:41.094Z,0.00
2016-10-01T05:49:41.756Z,0.00
2016-10-01T05:50:42.123Z,0.00
2016-10-01T05:51:42.642Z,0.00
2016-10-01T05:52:43.156Z,0.00
2016-10-01T05:53:43.679Z,0.00
2016-10-01T05:54:44.186Z,0.00
2016-10-01T05:55:44.997Z,0.00
2016-10-01T05:56:45.205Z,0.00
2016-10-01T05:57:45.720Z,0.00
2016-10-01T05:58:46.228Z,0.00
2016-10-01T05:59:46.741Z,0.00
2016-10-01T06:00:47.403Z,0.00
2016-10-01T06:01:47.761Z,0.00
2016-10-01T06:02:48.309Z,0.00
2016-10-01T06:03:48.793Z,0.00
2016-10-01T06:04:49.304Z,0.00
2016-10-01T06:05:49.970Z,0.00
2016-10-01T06:06:50.329Z,0.00
2016-10-01T06:07:50.843Z,0.00
2016-10-01T06:08:51.353Z,0.00
2016-10-01T06:09:51.882Z,0.00
2016-10-01T06:10:52.530Z,0.00
2016-10-01T06:11:52.898Z,0.00
2016-10-01T06:12:53.404Z,0.00
2016-10-01T06:13:53.914Z,0.00
2016-10-01T06:14:54.431Z,0.00
2016-10-01T06:15:54.942Z,0.00
2016-10-01T06:16:55.453Z,0.00
2016-10-01T06:17:55.965Z,0.00
2016-10-01T06:18:56.482Z,0.00
2016-10-01T06:19:56.991Z,0.00
2016-10-01T06:20:57.507Z,0.00
2016-10-01T06:21:58.016Z,0.00
2016-10-01T06:22:58.676Z,0.00
2016-10-01T06:23:59.035Z,1.00
2016-10-01T06:24:59.550Z,1.00
2016-10-01T06:26:00.056Z,1.00
2016-10-01T06:27:00.720Z,1.00
2016-10-01T06:28:01.237Z,1.00
2016-10-01T06:29:01.605Z,1.00
2016-10-01T06:30:02.123Z,1.00
2016-10-01T06:31:02.636Z,1.00
2016-10-01T06:32:03.153Z,1.00
2016-10-01T06:33:03.664Z,1.00
2016-10-01T06:34:04.180Z,1.00
2016-10-01T06:35:04.699Z,1.00
2016-10-01T06:36:05.205Z,1.00
2016-10-01T06:37:05.735Z,1.00
2016-10-01T06:38:06.234Z,1.00
2016-10-01T06:39:06.744Z,1.00
2016-10-01T06:40:07.261Z,1.00
2016-10-01T06:41:08.817Z,1.00
2016-10-01T06:42:08.427Z,1.00
2016-10-01T06:43:08.784Z,1.00
2016-10-01T06:44:09.443Z,1.00
2016-10-01T06:45:09.812Z,1.00
2016-10-01T06:46:10.322Z,1.00
2016-10-01T06:47:20.898Z,1.00
2016-10-01T06:48:11.343Z,1.00
2016-10-01T06:49:11.850Z,1.00
2016-10-01T06:50:12.370Z,1.00
2016-10-01T06:51:13.040Z,1.00
2016-10-01T06:52:13.411Z,1.00
2016-10-01T06:53:13.932Z,1.00
2016-10-01T06:54:14.447Z,1.00
2016-10-01T06:55:14.965Z,1.00
2016-10-01T06:56:15.627Z,1.00
2016-10-01T06:57:15.988Z,1.00
2016-10-01T06:58:16.508Z,1.00
2016-10-01T06:59:17.021Z,1.00
2016-10-01T07:00:17.530Z,1.00
2016-10-01T07:01:18.034Z,1.00
2016-10-01T07:02:18.544Z,1.00
2016-10-01T07:03:19.088Z,1.00
2016-10-01T07:04:19.575Z,1.00
2016-10-01T07:05:20.096Z,2.00
2016-10-01T07:06:20.633Z,2.00
2016-10-01T07:07:21.147Z,2.00
2016-10-01T07:08:21.633Z,2.00
2016-10-01T07:09:22.297Z,2.00
2016-10-01T07:10:22.655Z,2.00
2016-10-01T07:11:23.168Z,3.00
2016-10-01T07:12:23.682Z,3.00
2016-10-01T07:13:24.194Z,3.00
2016-10-01T07:14:24.711Z,3.00
2016-10-01T07:15:25.373Z,3.00
2016-10-01T07:16:25.739Z,3.00
2016-10-01T07:17:26.254Z,3.00
2016-10-01T07:18:26.762Z,3.00
2016-10-01T07:19:27.271Z,2.00
2016-10-01T07:20:27.787Z,2.00
2016-10-01T07:21:28.300Z,2.00
2016-10-01T07:22:28.814Z,2.00
2016-10-01T07:23:29.478Z,2.00
2016-10-01T07:24:29.987Z,2.00
2016-10-01T07:25:30.348Z,2.00
2016-10-01T07:26:30.861Z,2.00
2016-10-01T07:27:31.377Z,2.00
2016-10-01T07:28:31.887Z,2.00
2016-10-01T07:29:32.394Z,2.00
2016-10-01T07:30:32.907Z,2.00
2016-10-01T07:31:33.415Z,2.00
2016-10-01T07:32:33.927Z,2.00
2016-10-01T07:33:34.588Z,2.00
2016-10-01T07:34:34.954Z,2.00
2016-10-01T07:35:35.461Z,2.00
2016-10-01T07:36:35.974Z,2.00
2016-10-01T07:37:36.482Z,2.00
2016-10-01T07:38:36.997Z,2.00
2016-10-01T07:39:37.531Z,2.00
2016-10-01T07:40:38.170Z,3.00
2016-10-01T07:41:38.538Z,3.00
2016-10-01T07:42:39.054Z,3.00
2016-10-01T07:43:39.723Z,3.00
2016-10-01T07:44:40.091Z,3.00
2016-10-01T07:45:40.612Z,3.00
2016-10-01T07:46:41.116Z,3.00
2016-10-01T07:47:41.625Z,3.00
2016-10-01T07:48:42.596Z,4.00
2016-10-01T07:49:42.804Z,4.00
2016-10-01T07:50:43.318Z,4.00
2016-10-01T07:51:43.706Z,4.00
2016-10-01T07:52:44.191Z,4.00
2016-10-01T07:53:44.709Z,4.00
2016-10-01T07:54:45.359Z,4.00
2016-10-01T07:55:45.873Z,4.00
2016-10-01T07:56:46.237Z,4.00
2016-10-01T07:57:46.750Z,4.00
2016-10-01T07:58:47.265Z,4.00
2016-10-01T07:59:47.783Z,4.00
2016-10-01T08:00:48.299Z,5.00
2016-10-01T08:01:48.809Z,5.00
2016-10-01T08:02:49.316Z,5.00
2016-10-01T08:03:49.832Z,5.00
2016-10-01T08:04:50.346Z,5.00
2016-10-01T08:05:50.856Z,5.00
2016-10-01T08:06:51.366Z,5.00
2016-10-01T08:07:51.881Z,5.00
2016-10-01T08:08:52.391Z,5.00
2016-10-01T08:09:52.910Z,5.00
2016-10-01T08:10:53.412Z,6.00
2016-10-01T08:11:54.075Z,6.00
2016-10-01T08:12:54.437Z,6.00
2016-10-01T08:13:54.948Z,6.00
2016-10-01T08:14:55.464Z,6.00
2016-10-01T08:15:55.971Z,6.00
2016-10-01T08:16:56.485Z,6.00
2016-10-01T08:17:57.156Z,6.00
2016-10-01T08:18:57.523Z,5.00
2016-10-01T08:19:58.040Z,5.00
2016-10-01T08:20:58.562Z,5.00
2016-10-01T08:21:59.066Z,4.00
2016-10-01T08:22:59.577Z,4.00
2016-10-01T08:24:00.092Z,4.00
2016-10-01T08:25:00.602Z,4.00
2016-10-01T08:26:01.264Z,4.00
2016-10-01T08:27:03.276Z,5.00
2016-10-01T08:28:02.287Z,5.00
2016-10-01T08:29:02.641Z,5.00
2016-10-01T08:30:03.305Z,5.00
2016-10-01T08:31:03.666Z,5.00
2016-10-01T08:32:04.176Z,4.00
2016-10-01T08:33:04.838Z,4.00
2016-10-01T08:34:05.194Z,4.00
2016-10-01T08:35:05.857Z,4.00
2016-10-01T08:36:06.219Z,4.00
2016-10-01T08:37:06.734Z,4.00
2016-10-01T08:38:07.392Z,4.00
2016-10-01T08:39:07.754Z,4.00
2016-10-01T08:40:08.304Z,4.00
2016-10-01T08:41:08.784Z,4.00
2016-10-01T08:42:09.295Z,4.00
2016-10-01T08:43:09.956Z,4.00
2016-10-01T08:44:10.315Z,4.00
2016-10-01T08:45:11.148Z,4.00
2016-10-01T08:46:11.340Z,4.00
2016-10-01T08:47:11.860Z,4.00
2016-10-01T08:48:12.361Z,4.00
2016-10-01T08:49:12.896Z,4.00
2016-10-01T08:50:13.380Z,4.00
2016-10-01T08:51:13.898Z,4.00
2016-10-01T08:52:14.558Z,4.00
2016-10-01T08:53:14.921Z,4.00
2016-10-01T08:54:15.430Z,4.00
2016-10-01T08:55:15.949Z,4.00
2016-10-01T08:56:16.460Z,4.00
2016-10-01T08:57:17.877Z,4.00
2016-10-01T08:58:17.494Z,4.00
2016-10-01T08:59:18.011Z,4.00
2016-10-01T09:00:18.673Z,4.00
2016-10-01T09:01:19.179Z,4.00
2016-10-01T09:02:19.544Z,4.00
2016-10-01T09:03:20.058Z,4.00
2016-10-01T09:04:20.572Z,4.00
2016-10-01T09:05:21.104Z,4.00
2016-10-01T09:06:21.593Z,4.00
2016-10-01T09:07:22.139Z,4.00
2016-10-01T09:08:22.617Z,4.00
2016-10-01T09:09:23.278Z,4.00
2016-10-01T09:10:23.639Z,4.00
2016-10-01T09:11:24.156Z,4.00
2016-10-01T09:12:24.665Z,4.00
2016-10-01T09:13:25.178Z,4.00
2016-10-01T09:14:25.841Z,4.00
2016-10-01T09:15:26.210Z,4.00
2016-10-01T09:16:26.719Z,4.00
2016-10-01T09:17:27.226Z,4.00
2016-10-01T09:18:27.890Z,4.00
2016-10-01T09:19:28.398Z,4.00
2016-10-01T09:20:28.772Z,4.00
2016-10-01T09:21:29.288Z,4.00
2016-10-01T09:22:29.787Z,4.00
2016-10-01T09:23:30.299Z,4.00
2016-10-01T09:24:30.960Z,4.00
2016-10-01T09:25:31.323Z,4.00
2016-10-01T09:26:31.838Z,4.00
2016-10-01T09:27:32.502Z,4.00
2016-10-01T09:28:33.020Z,4.00
2016-10-01T09:29:33.398Z,4.00
2016-10-01T09:30:33.895Z,4.00
2016-10-01T09:31:34.411Z,4.00
2016-10-01T09:32:34.923Z,4.00
2016-10-01T09:33:35.590Z,4.00
2016-10-01T09:34:35.953Z,4.00
2016-10-01T09:35:36.493Z,4.00
2016-10-01T09:36:36.981Z,4.00
2016-10-01T09:37:37.501Z,4.00
2016-10-01T09:38:38.007Z,4.00
2016-10-01T09:39:38.517Z,4.00
2016-10-01T09:40:39.027Z,4.00
2016-10-01T09:41:39.691Z,4.00
2016-10-01T09:42:40.053Z,4.00
2016-10-01T09:43:40.564Z,4.00
2016-10-01T09:44:41.077Z,4.00
2016-10-01T09:45:41.732Z,4.00
2016-10-01T09:46:42.097Z,4.00
2016-10-01T09:47:42.607Z,4.00
2016-10-01T09:48:43.114Z,4.00
2016-10-01T09:49:43.629Z,4.00
2016-10-01T09:50:44.292Z,4.00
2016-10-01T09:51:44.659Z,4.00
2016-10-01T09:52:45.165Z,3.00
2016-10-01T09:53:45.683Z,4.00
2016-10-01T09:54:46.338Z,4.00
2016-10-01T09:55:46.850Z,4.00
2016-10-01T09:56:47.210Z,4.00
2016-10-01T09:57:47.724Z,4.00
2016-10-01T09:58:50.183Z,4.00
2016-10-01T09:59:48.745Z,4.00
2016-10-01T10:00:49.253Z,3.00
2016-10-01T10:01:49.774Z,3.00
2016-10-01T10:02:50.282Z,3.00
2016-10-01T10:03:50.799Z,3.00
2016-10-01T10:04:51.447Z,4.00
2016-10-01T10:05:51.964Z,4.00
2016-10-01T10:06:52.329Z,4.00
2016-10-01T10:07:52.834Z,4.00
2016-10-01T10:08:53.347Z,3.00
2016-10-01T10:09:53.860Z,3.00
2016-10-01T10:10:54.379Z,3.00
2016-10-01T10:11:54.899Z,3.00
2016-10-01T10:12:55.410Z,3.00
2016-10-01T10:13:55.935Z,3.00
2016-10-01T10:14:56.436Z,3.00
2016-10-01T10:15:56.952Z,3.00
2016-10-01T10:16:57.455Z,3.00
2016-10-01T10:17:57.967Z,3.00
2016-10-01T10:18:58.479Z,4.00
2016-10-01T10:19:58.996Z,4.00
2016-10-01T10:20:59.507Z,4.00
2016-10-01T10:22:00.019Z,4.00
2016-10-01T10:23:00.687Z,4.00
2016-10-01T10:24:01.046Z,4.00
2016-10-01T10:25:01.583Z,4.00
2016-10-01T10:26:02.087Z,4.00
2016-10-01T10:27:02.585Z,4.00
2016-10-01T10:28:03.097Z,5.00
2016-10-01T10:29:04.507Z,5.00
2016-10-01T10:30:04.265Z,5.00
2016-10-01T10:31:04.625Z,5.00
2016-10-01T10:32:05.173Z,5.00
2016-10-01T10:33:05.651Z,5.00
2016-10-01T10:34:06.311Z,6.00
2016-10-01T10:35:06.677Z,6.00
2016-10-01T10:36:07.189Z,6.00
2016-10-01T10:37:07.696Z,6.00
2016-10-01T10:38:08.206Z,6.00
2016-10-01T10:39:08.712Z,6.00
2016-10-01T10:40:09.225Z,6.00
2016-10-01T10:41:09.737Z,7.00
2016-10-01T10:42:10.248Z,7.00
2016-10-01T10:43:10.760Z,8.00
2016-10-01T10:44:11.275Z,8.00
2016-10-01T10:45:11.787Z,8.00
2016-10-01T10:46:12.299Z,8.00
2016-10-01T10:47:12.967Z,8.00
2016-10-01T10:48:13.336Z,9.00
2016-10-01T10:49:14.003Z,9.00
2016-10-01T10:50:14.519Z,10.00
2016-10-01T10:51:14.894Z,10.00
2016-10-01T10:52:15.399Z,10.00
2016-10-01T10:53:15.911Z,11.00
2016-10-01T10:54:16.421Z,11.00
2016-10-01T10:55:16.938Z,11.00
2016-10-01T10:56:17.443Z,11.00
2016-10-01T10:57:17.958Z,11.00
2016-10-01T10:58:18.474Z,11.00
2016-10-01T10:59:19.137Z,11.00
2016-10-01T11:00:19.499Z,10.00
2016-10-01T11:01:20.021Z,10.00
2016-10-01T11:02:20.520Z,10.00
2016-10-01T11:03:21.027Z,10.00
2016-10-01T11:04:21.542Z,11.00
2016-10-01T11:05:22.055Z,11.00
2016-10-01T11:06:22.564Z,12.00
2016-10-01T11:07:23.231Z,13.00
2016-10-01T11:08:23.593Z,14.00
2016-10-01T11:09:24.286Z,14.00
2016-10-01T11:10:24.652Z,14.00
2016-10-01T11:11:25.136Z,15.00
2016-10-01T11:12:25.642Z,15.00
2016-10-01T11:13:26.298Z,15.00
2016-10-01T11:14:26.662Z,15.00
2016-10-01T11:15:27.175Z,15.00
2016-10-01T11:16:27.687Z,15.00
2016-10-01T11:17:28.203Z,14.00
2016-10-01T11:18:28.859Z,14.00
2016-10-01T11:19:29.224Z,14.00
2016-10-01T11:20:29.760Z,14.00
2016-10-01T11:21:30.241Z,14.00
2016-10-01T11:22:30.904Z,14.00
2016-10-01T11:23:31.263Z,14.00
2016-10-01T11:24:31.774Z,12.00
2016-10-01T11:25:32.290Z,11.00
2016-10-01T11:26:32.805Z,10.00
2016-10-01T11:27:33.319Z,9.00
2016-10-01T11:28:33.835Z,9.00
2016-10-01T11:29:34.345Z,9.00
2016-10-01T11:30:34.857Z,10.00
2016-10-01T11:31:35.375Z,10.00
2016-10-01T11:32:36.026Z,10.00
2016-10-01T11:33:36.385Z,9.00
2016-10-01T11:34:38.248Z,9.00
2016-10-01T11:35:37.407Z,8.00
2016-10-01T11:36:37.919Z,7.00
2016-10-01T11:37:38.443Z,7.00
2016-10-01T11:38:38.935Z,7.00
2016-10-01T11:39:39.444Z,8.00
2016-10-01T11:40:39.959Z,8.00
2016-10-01T11:41:40.468Z,8.00
2016-10-01T11:42:40.984Z,7.00
2016-10-01T11:43:41.495Z,8.00
2016-10-01T11:44:42.018Z,8.00
2016-10-01T11:45:42.526Z,9.00
2016-10-01T11:46:43.039Z,9.00
2016-10-01T11:47:43.549Z,9.00
2016-10-01T11:48:44.097Z,8.00
2016-10-01T11:49:44.574Z,7.00
2016-10-01T11:50:45.082Z,6.00
2016-10-01T11:51:45.591Z,5.00
2016-10-01T11:52:46.264Z,6.00
2016-10-01T11:53:46.616Z,7.00
2016-10-01T11:54:47.128Z,7.00
2016-10-01T11:55:47.791Z,8.00
2016-10-01T11:56:48.161Z,8.00
2016-10-01T11:57:48.666Z,9.00
2016-10-01T11:58:49.179Z,9.00
2016-10-01T11:59:49.686Z,10.00
2016-10-01T12:00:50.351Z,11.00
2016-10-01T12:01:50.718Z,11.00
2016-10-01T12:02:51.238Z,11.00
2016-10-01T12:03:51.750Z,11.00
2016-10-01T12:04:52.418Z,12.00
2016-10-01T12:05:52.772Z,12.00
2016-10-01T12:06:53.437Z,12.00
2016-10-01T12:07:53.798Z,11.00
2016-10-01T12:08:54.315Z,10.00
2016-10-01T12:09:54.824Z,10.00
2016-10-01T12:10:55.344Z,9.00
2016-10-01T12:11:55.858Z,9.00
2016-10-01T12:12:56.372Z,10.00
2016-10-01T12:13:56.881Z,11.00
2016-10-01T12:14:57.392Z,12.00
2016-10-01T12:15:58.060Z,12.00
2016-10-01T12:16:58.416Z,13.00
2016-10-01T12:17:58.925Z,12.00
2016-10-01T12:18:59.436Z,12.00
2016-10-01T12:19:59.945Z,12.00
2016-10-01T12:21:00.458Z,12.00
2016-10-01T12:22:00.975Z,11.00
2016-10-01T12:23:01.632Z,11.00
2016-10-01T12:24:02.144Z,10.00
2016-10-01T12:25:02.510Z,10.00
2016-10-01T12:26:03.014Z,10.00
2016-10-01T12:27:03.527Z,10.00
2016-10-01T12:28:04.035Z,10.00
2016-10-01T12:29:04.701Z,10.00
2016-10-01T12:30:05.066Z,10.00
2016-10-01T12:31:05.590Z,11.00
2016-10-01T12:32:06.092Z,11.00
2016-10-01T12:33:06.753Z,10.00
2016-10-01T12:34:07.119Z,10.00
2016-10-01T12:35:07.633Z,10.00
2016-10-01T12:36:08.150Z,10.00
2016-10-01T12:37:08.664Z,11.00
2016-10-01T12:38:09.184Z,11.00
2016-10-01T12:39:09.802Z,11.00
2016-10-01T12:40:10.366Z,11.00
2016-10-01T12:41:10.730Z,11.00
2016-10-01T12:42:11.246Z,11.00
2016-10-01T12:43:11.764Z,11.00
2016-10-01T12:44:12.570Z,11.00
2016-10-01T12:45:12.778Z,12.00
2016-10-01T12:46:13.293Z,12.00
2016-10-01T12:47:13.812Z,13.00
2016-10-01T12:48:14.319Z,13.00
2016-10-01T12:49:14.982Z,13.00
2016-10-01T12:50:15.343Z,13.00
2016-10-01T12:51:15.852Z,12.00
2016-10-01T12:52:16.363Z,12.00
2016-10-01T12:53:16.873Z,12.00
2016-10-01T12:54:17.386Z,11.00
2016-10-01T12:55:17.898Z,11.00
2016-10-01T12:56:18.408Z,12.00
2016-10-01T12:57:18.922Z,12.00
2016-10-01T12:58:19.585Z,13.00
2016-10-01T13:00:16.111Z,13.00
2016-10-01T13:01:20.980Z,13.00
2016-10-01T13:02:21.492Z,13.00
2016-10-01T13:03:21.999Z,13.00
2016-10-01T13:04:22.514Z,13.00
2016-10-01T13:05:23.029Z,13.00
2016-10-01T13:06:23.538Z,13.00
2016-10-01T13:07:25.852Z,12.00
2016-10-01T13:08:24.735Z,11.00
2016-10-01T13:09:25.076Z,11.00
2016-10-01T13:10:25.591Z,11.00
2016-10-01T13:11:26.112Z,12.00
2016-10-01T13:12:26.622Z,12.00
2016-10-01T13:13:27.138Z,12.00
2016-10-01T13:14:27.647Z,12.00
2016-10-01T13:15:28.162Z,12.00
2016-10-01T13:16:28.676Z,13.00
2016-10-01T13:17:29.344Z,13.00
2016-10-01T13:18:29.714Z,14.00
2016-10-01T13:19:30.392Z,14.00
2016-10-01T13:20:30.735Z,15.00
2016-10-01T13:21:31.250Z,15.00
2016-10-01T13:22:31.915Z,16.00